createdAt,value
2018-12-15T00:01:28.227Z,55.20
2018-12-15T00:03:56.628Z,59.93
2018-12-15T00:06:25.153Z,54.97
2018-12-15T00:08:53.557Z,56.13
2018-12-15T00:11:21.969Z,59.50
2018-12-15T00:13:50.392Z,55.97
2018-12-15T00:16:18.867Z,53.60
2018-12-15T00:18:47.259Z,66.90
2018-12-15T00:21:15.711Z,52.63
2018-12-15T00:23:44.137Z,56.00
2018-12-15T00:26:12.651Z,50.10
2018-12-15T00:28:41.066Z,55.77
2018-12-15T00:31:09.496Z,50.07
2018-12-15T00:33:37.943Z,56.00
2018-12-15T00:36:06.432Z,50.83
2018-12-15T00:38:34.846Z,52.37
2018-12-15T00:41:03.438Z,51.07
2018-12-15T00:43:31.845Z,50.67
2018-12-15T00:46:00.271Z,53.27
2018-12-15T00:48:28.722Z,47.93
2018-12-15T00:50:57.120Z,48.30
2018-12-15T00:53:25.631Z,49.80
2018-12-15T00:55:54.035Z,48.20
2018-12-15T00:58:22.445Z,47.53
2018-12-15T01:00:50.861Z,46.37
2018-12-15T01:03:19.290Z,46.70
2018-12-15T01:05:47.672Z,47.33
2018-12-15T01:08:16.091Z,46.40
2018-12-15T01:10:44.504Z,47.10
2018-12-15T01:13:12.892Z,45.37
2018-12-15T01:15:45.383Z,44.87
2018-12-15T01:18:14.528Z,53.13
2018-12-15T01:20:43.047Z,45.43
2018-12-15T01:23:11.455Z,41.83
2018-12-15T01:25:39.864Z,45.30
2018-12-15T01:28:08.297Z,45.20
2018-12-15T01:30:36.697Z,41.87
2018-12-15T01:33:05.243Z,47.67
2018-12-15T01:35:33.683Z,47.80
2018-12-15T01:38:02.064Z,42.47
2018-12-15T01:40:30.490Z,49.30
2018-12-15T01:42:58.950Z,48.27
2018-12-15T01:45:27.485Z,50.83
2018-12-15T01:47:55.957Z,48.93
2018-12-15T01:50:24.375Z,49.90
2018-12-15T01:52:52.786Z,49.67
2018-12-15T01:55:21.201Z,46.77
2018-12-15T01:57:49.626Z,50.63
2018-12-15T02:00:18.170Z,49.37
2018-12-15T02:02:46.593Z,52.83
2018-12-15T02:05:14.980Z,48.37
2018-12-15T02:07:43.367Z,49.90
2018-12-15T02:10:11.941Z,52.20
2018-12-15T02:12:40.361Z,50.00
2018-12-15T02:15:09.015Z,53.90
2018-12-15T02:17:37.410Z,51.07
2018-12-15T02:20:06.447Z,54.33
2018-12-15T02:22:34.904Z,57.80
2018-12-15T02:25:03.519Z,50.37
2018-12-15T02:27:31.899Z,53.30
2018-12-15T02:30:00.326Z,62.03
2018-12-15T02:32:28.845Z,56.53
2018-12-15T02:34:57.256Z,50.70
2018-12-15T02:37:25.748Z,54.20
2018-12-15T02:39:54.150Z,50.77
2018-12-15T02:42:22.545Z,48.40
2018-12-15T02:44:50.980Z,46.60
2018-12-15T02:47:19.389Z,48.17
2018-12-15T02:49:47.811Z,47.20
2018-12-15T02:52:16.250Z,44.30
2018-12-15T02:54:44.741Z,50.63
2018-12-15T02:57:13.179Z,46.57
2018-12-15T02:59:41.692Z,49.20
2018-12-15T03:02:10.236Z,50.67
2018-12-15T03:04:38.703Z,47.33
2018-12-15T03:07:07.127Z,49.10
2018-12-15T03:09:35.547Z,42.07
2018-12-15T03:12:04.045Z,47.17
2018-12-15T03:14:32.455Z,46.03
2018-12-15T03:17:06.433Z,45.93
2018-12-15T03:19:34.969Z,46.30
2018-12-15T03:22:03.402Z,43.43
2018-12-15T03:24:31.800Z,45.80
2018-12-15T03:27:00.206Z,40.40
2018-12-15T03:29:28.617Z,45.67
2018-12-15T03:31:57.003Z,40.90
2018-12-15T03:34:25.390Z,41.27
2018-12-15T03:36:53.899Z,39.13
2018-12-15T03:39:22.710Z,40.53
2018-12-15T03:41:51.327Z,40.67
2018-12-15T03:44:19.744Z,40.63
2018-12-15T03:46:48.301Z,40.37
2018-12-15T03:49:16.699Z,42.00
2018-12-15T03:51:45.095Z,40.27
2018-12-15T03:54:13.524Z,40.87
2018-12-15T03:56:41.931Z,46.40
2018-12-15T03:59:10.336Z,38.63
2018-12-15T04:01:38.795Z,39.37
2018-12-15T04:04:07.211Z,40.20
2018-12-15T04:06:35.692Z,43.00
2018-12-15T04:09:06.151Z,37.07
2018-12-15T04:11:34.561Z,35.77
2018-12-15T04:14:02.968Z,37.10
2018-12-15T04:16:31.402Z,36.47
2018-12-15T04:18:59.917Z,39.80
2018-12-15T04:21:28.333Z,36.30
2018-12-15T04:23:56.743Z,38.23
2018-12-15T04:26:25.155Z,35.27
2018-12-15T04:28:53.552Z,38.10
2018-12-15T04:31:21.957Z,34.63
2018-12-15T04:33:50.385Z,38.13
2018-12-15T04:36:19.457Z,32.73
2018-12-15T04:38:47.933Z,37.60
2018-12-15T04:41:16.423Z,38.33
2018-12-15T04:43:45.050Z,38.37
2018-12-15T04:46:13.543Z,34.47
2018-12-15T04:48:42.086Z,36.57
2018-12-15T04:51:10.495Z,34.93
2018-12-15T04:53:38.907Z,36.87
2018-12-15T04:56:07.333Z,35.80
2018-12-15T04:58:35.735Z,35.70
2018-12-15T05:01:04.179Z,34.60
2018-12-15T05:03:32.592Z,33.50
2018-12-15T05:06:01.025Z,32.77
2018-12-15T05:08:29.442Z,34.67
2018-12-15T05:10:57.856Z,30.63
2018-12-15T05:13:26.248Z,32.77
2018-12-15T05:15:54.647Z,36.17
2018-12-15T05:18:23.195Z,34.40
2018-12-15T05:20:51.602Z,31.70
2018-12-15T05:23:19.998Z,39.70
2018-12-15T05:25:48.411Z,38.10
2018-12-15T05:28:16.840Z,35.00
2018-12-15T05:30:45.269Z,36.00
2018-12-15T05:33:13.682Z,33.43
2018-12-15T05:35:42.099Z,33.20
2018-12-15T05:38:10.497Z,34.37
2018-12-15T05:40:38.911Z,34.63
2018-12-15T05:43:07.426Z,36.57
2018-12-15T05:45:35.844Z,33.50
2018-12-15T05:48:05.272Z,38.20
2018-12-15T05:50:33.690Z,34.33
2018-12-15T05:53:02.103Z,35.57
2018-12-15T05:55:30.506Z,34.97
2018-12-15T05:57:58.954Z,36.00
2018-12-15T06:00:27.361Z,34.70
2018-12-15T06:02:55.779Z,34.03
2018-12-15T06:05:25.111Z,33.90
2018-12-15T06:07:53.719Z,35.57
2018-12-15T06:10:22.137Z,32.83
2018-12-15T06:12:50.560Z,35.83
2018-12-15T06:15:18.945Z,34.90
2018-12-15T06:17:47.340Z,37.83
2018-12-15T06:20:15.855Z,40.20
2018-12-15T06:22:44.252Z,35.10
2018-12-15T06:25:12.648Z,36.37
2018-12-15T06:27:41.087Z,39.60
2018-12-15T06:30:09.612Z,36.00
2018-12-15T06:32:38.026Z,37.27
2018-12-15T06:35:06.619Z,35.57
2018-12-15T06:37:35.031Z,40.10
2018-12-15T06:40:04.121Z,42.87
2018-12-15T06:42:32.581Z,42.83
2018-12-15T06:45:00.963Z,37.80
2018-12-15T06:47:30.840Z,42.33
2018-12-15T06:49:59.253Z,37.43
2018-12-15T06:52:27.668Z,42.13
2018-12-15T06:54:56.081Z,39.40
2018-12-15T06:57:24.498Z,37.53
2018-12-15T06:59:52.915Z,34.83
2018-12-15T07:02:21.344Z,41.33
2018-12-15T07:04:49.850Z,43.00
2018-12-15T07:07:18.280Z,43.37
2018-12-15T07:09:46.692Z,38.20
2018-12-15T07:12:15.126Z,38.90
2018-12-15T07:14:43.541Z,42.70
2018-12-15T07:17:11.980Z,40.47
2018-12-15T07:19:40.376Z,36.43
2018-12-15T07:22:08.786Z,38.77
2018-12-15T07:24:37.192Z,39.33
2018-12-15T07:27:05.629Z,39.00
2018-12-15T07:29:34.035Z,39.30
2018-12-15T07:32:02.567Z,40.77
2018-12-15T07:34:31.754Z,43.83
2018-12-15T07:37:00.184Z,38.83
2018-12-15T07:39:28.633Z,41.47
2018-12-15T07:41:57.205Z,42.07
2018-12-15T07:44:25.605Z,40.90
2018-12-15T07:46:54.035Z,39.63
2018-12-15T07:49:22.450Z,39.30
2018-12-15T07:51:50.873Z,42.70
2018-12-15T07:54:19.289Z,47.40
2018-12-15T07:56:47.735Z,39.33
2018-12-15T07:59:16.180Z,42.57
2018-12-15T08:01:44.694Z,38.47
2018-12-15T08:04:13.246Z,47.33
2018-12-15T08:06:41.728Z,41.73
2018-12-15T08:09:10.180Z,40.27
2018-12-15T08:11:44.046Z,45.73
2018-12-15T08:14:13.002Z,42.60
2018-12-15T08:16:41.432Z,52.43
2018-12-15T08:19:09.990Z,43.47
2018-12-15T08:21:38.699Z,44.70
2018-12-15T08:24:07.257Z,44.43
2018-12-15T08:26:35.781Z,48.30
2018-12-15T08:29:04.234Z,47.27
2018-12-15T08:31:32.785Z,43.27
2018-12-15T08:34:01.207Z,42.87
2018-12-15T08:36:29.639Z,43.73
2018-12-15T08:38:58.065Z,44.33
2018-12-15T08:41:26.519Z,47.40
2018-12-15T08:43:55.115Z,49.70
2018-12-15T08:46:23.546Z,53.60
2018-12-15T08:48:51.992Z,46.07
2018-12-15T08:51:20.753Z,49.00
2018-12-15T08:53:49.185Z,50.47
2018-12-15T08:56:17.791Z,45.13
2018-12-15T08:58:46.294Z,45.37
2018-12-15T09:01:14.788Z,46.37
2018-12-15T09:03:43.217Z,49.13
2018-12-15T09:06:11.638Z,46.97
2018-12-15T09:08:40.074Z,47.37
2018-12-15T09:11:08.488Z,51.93
2018-12-15T09:13:36.948Z,50.33
2018-12-15T09:16:05.484Z,58.00
2018-12-15T09:18:33.946Z,49.73
2018-12-15T09:21:02.441Z,52.13
2018-12-15T09:23:30.848Z,49.80
2018-12-15T09:25:59.267Z,51.50
2018-12-15T09:28:27.664Z,47.10
2018-12-15T09:30:56.124Z,48.20
2018-12-15T09:33:24.566Z,46.90
2018-12-15T09:35:53.087Z,51.47
2018-12-15T09:38:21.562Z,50.43
2018-12-15T09:40:49.996Z,50.40
2018-12-15T09:43:18.449Z,52.33
2018-12-15T09:45:46.963Z,54.00
2018-12-15T09:48:15.485Z,50.73
2018-12-15T09:50:44.047Z,49.87
2018-12-15T09:53:12.610Z,48.17
2018-12-15T09:55:41.138Z,53.53
2018-12-15T09:58:09.547Z,50.77
2018-12-15T10:00:38.018Z,49.33
2018-12-15T10:03:06.470Z,47.57
2018-12-15T10:05:34.997Z,50.17
2018-12-15T10:08:03.528Z,50.33
2018-12-15T10:10:31.990Z,46.63
2018-12-15T10:13:00.424Z,48.53
2018-12-15T10:15:28.850Z,49.63
2018-12-15T10:17:57.282Z,49.07
2018-12-15T10:20:25.718Z,48.77
2018-12-15T10:22:54.182Z,50.47
2018-12-15T10:25:22.614Z,53.93
2018-12-15T10:27:51.042Z,46.60
2018-12-15T10:30:24.908Z,60.03
2018-12-15T10:32:54.175Z,48.27
2018-12-15T10:35:22.839Z,55.43
2018-12-15T10:37:51.262Z,54.47
2018-12-15T10:40:19.688Z,57.13
2018-12-15T10:42:48.137Z,55.10
2018-12-15T10:45:16.595Z,62.67
2018-12-15T10:47:45.044Z,48.50
2018-12-15T10:50:13.480Z,50.13
2018-12-15T10:55:16.626Z,56.97
2018-12-15T10:57:45.022Z,45.77
2018-12-15T11:00:19.035Z,45.70
2018-12-15T11:02:47.461Z,43.47
2018-12-15T11:05:15.962Z,46.00
2018-12-15T11:07:44.398Z,49.17
2018-12-15T11:10:12.836Z,53.43
2018-12-15T11:12:41.269Z,62.17
2018-12-15T11:15:09.858Z,40.37
2018-12-15T11:17:39.997Z,43.53
2018-12-15T11:20:08.961Z,45.53
2018-12-15T11:22:38.027Z,53.33
2018-12-15T11:25:07.436Z,41.33
2018-12-15T11:27:35.849Z,48.43
2018-12-15T11:30:04.858Z,41.37
2018-12-15T11:32:33.360Z,46.27
2018-12-15T11:35:01.804Z,41.37
2018-12-15T11:37:30.240Z,43.37
2018-12-15T11:39:58.724Z,42.03
2018-12-15T11:42:27.150Z,46.13
2018-12-15T11:44:55.732Z,43.10
2018-12-15T11:47:24.293Z,46.60
2018-12-15T11:49:52.727Z,48.50
2018-12-15T11:52:21.218Z,51.77
2018-12-15T11:54:49.668Z,48.47
2018-12-15T11:57:18.230Z,48.73
2018-12-15T11:59:46.753Z,47.17
2018-12-15T12:02:15.211Z,47.77
2018-12-15T12:04:43.767Z,48.73
2018-12-15T12:07:12.247Z,46.80
2018-12-15T12:09:40.686Z,51.67
2018-12-15T12:12:09.139Z,46.10
2018-12-15T12:14:37.592Z,47.83
2018-12-15T12:17:06.053Z,49.00
2018-12-15T12:19:34.517Z,47.60
2018-12-15T12:22:02.934Z,44.80
2018-12-15T12:24:31.508Z,54.33
2018-12-15T12:27:00.032Z,46.83
2018-12-15T12:29:28.517Z,46.40
2018-12-15T12:31:56.946Z,46.47
2018-12-15T12:34:25.365Z,50.13
2018-12-15T12:36:53.904Z,50.30
2018-12-15T12:39:22.506Z,48.00
2018-12-15T12:41:50.923Z,51.97
2018-12-15T12:44:19.363Z,43.77
2018-12-15T12:46:47.868Z,46.87
2018-12-15T12:49:16.889Z,46.30
2018-12-15T12:51:45.308Z,45.37
2018-12-15T12:54:13.799Z,48.17
2018-12-15T12:56:42.268Z,48.30
2018-12-15T12:59:10.757Z,50.30
2018-12-15T13:01:39.216Z,48.67
2018-12-15T13:04:07.686Z,53.53
2018-12-15T13:06:36.255Z,49.07
2018-12-15T13:09:06.872Z,46.27
2018-12-15T13:11:35.307Z,47.90
2018-12-15T13:14:03.856Z,47.13
2018-12-15T13:16:32.303Z,46.07
2018-12-15T13:19:00.782Z,52.33
2018-12-15T13:21:29.293Z,50.53
2018-12-15T13:23:57.771Z,45.13
2018-12-15T13:26:26.304Z,51.50
2018-12-15T13:28:54.753Z,55.77
2018-12-15T13:31:23.309Z,46.30
2018-12-15T13:33:51.854Z,56.20
2018-12-15T13:36:20.430Z,49.17
2018-12-15T13:38:48.881Z,46.70
2018-12-15T13:41:17.321Z,50.80
2018-12-15T13:43:45.893Z,49.53
2018-12-15T13:46:14.367Z,57.37
2018-12-15T13:48:42.804Z,45.87
2018-12-15T13:51:11.352Z,50.40
2018-12-15T13:53:39.889Z,48.10
2018-12-15T13:56:08.344Z,50.63
2018-12-15T13:58:36.887Z,47.67
2018-12-15T14:01:05.444Z,51.90
2018-12-15T14:03:33.976Z,47.87
2018-12-15T14:06:02.397Z,50.23
2018-12-15T14:08:30.816Z,53.03
2018-12-15T14:11:00.236Z,51.60
2018-12-15T14:13:28.700Z,51.87
2018-12-15T14:15:57.287Z,49.20
2018-12-15T14:18:25.714Z,45.13
2018-12-15T14:20:54.136Z,49.10
2018-12-15T14:23:22.624Z,47.47
2018-12-15T14:25:51.102Z,58.63
2018-12-15T14:28:19.582Z,46.27
2018-12-15T14:30:47.975Z,50.33
2018-12-15T14:33:16.427Z,55.60
2018-12-15T14:35:45.713Z,47.43
2018-12-15T14:38:14.181Z,44.07
2018-12-15T14:40:42.606Z,51.40
2018-12-15T14:43:11.071Z,46.43
2018-12-15T14:45:39.554Z,47.57
2018-12-15T14:48:08.083Z,48.13
2018-12-15T14:50:36.633Z,46.63
2018-12-15T14:53:05.100Z,43.57
2018-12-15T14:55:33.627Z,50.00
2018-12-15T14:58:02.083Z,48.87
2018-12-15T15:00:30.574Z,51.67
2018-12-15T15:02:58.992Z,47.97
2018-12-15T15:05:27.601Z,51.93
2018-12-15T15:07:56.072Z,43.63
2018-12-15T15:10:24.538Z,48.23
2018-12-15T15:12:52.969Z,48.03
2018-12-15T15:15:21.453Z,49.17
2018-12-15T15:17:49.870Z,49.47
2018-12-15T15:20:18.318Z,48.57
2018-12-15T15:22:46.759Z,47.87
2018-12-15T15:25:15.182Z,48.50
2018-12-15T15:27:43.654Z,46.43
2018-12-15T15:30:13.031Z,48.40
2018-12-15T15:32:41.547Z,47.30
2018-12-15T15:35:09.988Z,46.90
2018-12-15T15:37:38.511Z,58.20
2018-12-15T15:40:07.052Z,57.03
2018-12-15T15:42:35.558Z,58.23
2018-12-15T15:45:05.164Z,49.03
2018-12-15T15:47:33.797Z,48.50
2018-12-15T15:50:02.639Z,51.13
2018-12-15T15:52:31.499Z,54.37
2018-12-15T15:54:59.918Z,54.47
2018-12-15T15:57:28.380Z,50.83
2018-12-15T15:59:56.822Z,52.37
2018-12-15T16:02:25.319Z,48.77
2018-12-15T16:04:53.760Z,50.43
2018-12-15T16:07:22.302Z,48.97
2018-12-15T16:09:50.774Z,55.93
2018-12-15T16:12:19.279Z,52.60
2018-12-15T16:14:47.699Z,51.60
2018-12-15T16:17:16.222Z,51.73
2018-12-15T16:19:44.670Z,58.37
2018-12-15T16:22:13.183Z,52.17
2018-12-15T16:24:41.605Z,57.53
2018-12-15T16:27:10.061Z,50.90
2018-12-15T16:29:38.492Z,57.57
2018-12-15T16:32:06.915Z,56.27
2018-12-15T16:34:35.394Z,52.47
2018-12-15T16:37:03.818Z,55.77
2018-12-15T16:39:32.298Z,55.03
2018-12-15T16:42:00.770Z,53.33
2018-12-15T16:44:29.203Z,54.37
2018-12-15T16:46:57.715Z,59.83
2018-12-15T16:49:26.137Z,54.87
2018-12-15T16:51:54.556Z,59.10
2018-12-15T16:54:23.169Z,53.47
2018-12-15T16:56:51.927Z,57.00
2018-12-15T16:59:20.360Z,57.07
2018-12-15T17:01:48.811Z,54.23
2018-12-15T17:04:17.229Z,60.13
2018-12-15T17:06:45.649Z,58.83
2018-12-15T17:09:14.075Z,59.37
2018-12-15T17:11:42.491Z,60.40
2018-12-15T17:14:11.000Z,60.83
2018-12-15T17:16:39.421Z,61.67
2018-12-15T17:19:10.314Z,61.00
2018-12-15T17:21:38.916Z,66.00
2018-12-15T17:24:07.331Z,59.97
2018-12-15T17:26:35.732Z,68.33
2018-12-15T17:29:04.156Z,61.00
2018-12-15T17:31:32.577Z,65.17
2018-12-15T17:34:01.200Z,60.67
2018-12-15T17:36:29.608Z,61.23
2018-12-15T17:38:58.132Z,67.83
2018-12-15T17:41:26.610Z,66.33
2018-12-15T17:43:55.054Z,66.47
2018-12-15T17:46:23.515Z,65.63
2018-12-15T17:48:51.977Z,63.77
2018-12-15T17:51:20.414Z,64.47
2018-12-15T17:53:48.820Z,70.00
2018-12-15T17:56:17.219Z,68.33
2018-12-15T17:58:45.696Z,74.87
2018-12-15T18:01:14.177Z,60.60
2018-12-15T18:03:42.583Z,67.13
2018-12-15T18:06:11.010Z,58.03
2018-12-15T18:08:39.545Z,58.77
2018-12-15T18:11:07.993Z,60.90
2018-12-15T18:13:36.392Z,64.57
2018-12-15T18:16:04.852Z,65.83
2018-12-15T18:18:33.385Z,72.20
2018-12-15T18:21:01.813Z,65.10
2018-12-15T18:23:30.223Z,64.23
2018-12-15T18:25:58.673Z,64.27
2018-12-15T18:28:27.091Z,65.47
2018-12-15T18:30:55.501Z,63.47
2018-12-15T18:33:23.950Z,65.63
2018-12-15T18:35:52.481Z,68.83
2018-12-15T18:38:20.997Z,67.10
2018-12-15T18:40:49.429Z,65.50
2018-12-15T18:43:17.867Z,66.33
2018-12-15T18:45:46.306Z,68.87
2018-12-15T18:48:14.710Z,66.40
2018-12-15T18:50:43.234Z,65.80
2018-12-15T18:53:11.650Z,71.27
2018-12-15T18:55:40.149Z,67.60
2018-12-15T18:58:12.038Z,68.10
2018-12-15T19:00:40.466Z,65.47
2018-12-15T19:03:08.919Z,72.87
2018-12-15T19:05:37.352Z,67.80
2018-12-15T19:08:06.194Z,70.20
2018-12-15T19:10:34.608Z,76.50
2018-12-15T19:13:03.143Z,68.50
2018-12-15T19:15:31.588Z,74.07
2018-12-15T19:18:00.010Z,72.93
2018-12-15T19:20:28.468Z,68.43
2018-12-15T19:22:56.991Z,72.00
2018-12-15T19:25:25.431Z,75.57
2018-12-15T19:27:53.828Z,76.17
2018-12-15T19:30:22.266Z,80.87
2018-12-15T19:32:50.682Z,78.70
2018-12-15T19:35:19.124Z,73.93
2018-12-15T19:37:47.567Z,73.27
2018-12-15T19:40:15.977Z,83.00
2018-12-15T19:42:44.387Z,76.37
2018-12-15T19:45:12.809Z,77.93
2018-12-15T19:47:41.251Z,80.87
2018-12-15T19:50:09.721Z,81.30
2018-12-15T19:52:38.422Z,74.97
2018-12-15T19:55:07.181Z,81.23
2018-12-15T19:57:35.636Z,81.27
2018-12-15T20:00:05.225Z,84.37
2018-12-15T20:02:33.772Z,75.40
2018-12-15T20:05:02.241Z,75.87
2018-12-15T20:07:30.714Z,72.60
2018-12-15T20:09:59.118Z,80.83
2018-12-15T20:12:27.521Z,77.43
2018-12-15T20:14:55.950Z,83.73
2018-12-15T20:17:24.376Z,84.17
2018-12-15T20:19:52.807Z,76.23
2018-12-15T20:22:21.250Z,78.77
2018-12-15T20:24:50.590Z,79.83
2018-12-15T20:27:19.147Z,81.50
2018-12-15T20:29:47.572Z,82.43
2018-12-15T20:32:16.024Z,85.20
2018-12-15T20:34:44.548Z,83.83
2018-12-15T20:37:12.943Z,85.90
2018-12-15T20:39:41.414Z,81.43
2018-12-15T20:42:09.868Z,79.73
2018-12-15T20:44:41.655Z,83.20
2018-12-15T20:47:08.729Z,80.47
2018-12-15T20:49:37.146Z,79.07
2018-12-15T20:52:05.752Z,71.87
2018-12-15T20:54:34.185Z,80.03
2018-12-15T20:57:02.659Z,77.70
2018-12-15T20:59:31.095Z,75.37
2018-12-15T21:01:59.561Z,79.03
2018-12-15T21:04:28.112Z,80.20
2018-12-15T21:06:56.603Z,83.57
2018-12-15T21:09:25.096Z,89.17
2018-12-15T21:11:53.679Z,82.73
2018-12-15T21:14:22.215Z,89.13
2018-12-15T21:16:50.792Z,87.63
2018-12-15T21:19:19.307Z,85.97
2018-12-15T21:21:49.633Z,96.27
2018-12-15T21:24:18.450Z,85.63
2018-12-15T21:26:47.027Z,82.90
2018-12-15T21:29:15.520Z,83.30
2018-12-15T21:31:44.007Z,92.60
2018-12-15T21:34:12.464Z,84.73
2018-12-15T21:36:40.942Z,85.13
2018-12-15T21:39:09.457Z,83.67
2018-12-15T21:41:37.952Z,92.57
2018-12-15T21:44:06.368Z,86.67
2018-12-15T21:46:34.777Z,85.17
2018-12-15T21:49:03.297Z,93.20
2018-12-15T21:51:31.715Z,84.37
2018-12-15T21:54:00.377Z,87.97
2018-12-15T21:56:28.837Z,80.67
2018-12-15T21:58:57.368Z,86.03
2018-12-15T22:01:25.897Z,83.97
2018-12-15T22:03:54.467Z,83.47
2018-12-15T22:06:22.875Z,78.53
2018-12-15T22:08:51.461Z,86.93
2018-12-15T22:11:19.972Z,83.03
2018-12-15T22:13:48.422Z,81.40
2018-12-15T22:16:16.937Z,80.30
2018-12-15T22:18:45.456Z,79.00
2018-12-15T22:21:13.965Z,81.07
2018-12-15T22:23:42.540Z,77.30
2018-12-15T22:26:11.010Z,74.93
2018-12-15T22:28:39.695Z,73.07
2018-12-15T22:31:08.157Z,82.03
2018-12-15T22:33:36.552Z,76.40
2018-12-15T22:36:05.000Z,72.47
2018-12-15T22:38:33.413Z,67.17
2018-12-15T22:41:01.834Z,62.93
2018-12-15T22:43:30.298Z,62.33
2018-12-15T22:45:58.823Z,62.57
2018-12-15T22:48:27.219Z,66.33
2018-12-15T22:50:55.699Z,63.27
2018-12-15T22:53:24.095Z,69.33
2018-12-15T22:55:52.566Z,65.03
2018-12-15T22:58:21.070Z,58.57
2018-12-15T23:00:55.107Z,59.93
2018-12-15T23:03:23.619Z,56.63
2018-12-15T23:05:52.140Z,56.00
2018-12-15T23:08:20.545Z,58.27
2018-12-15T23:10:49.064Z,50.80
2018-12-15T23:13:17.608Z,54.80
2018-12-15T23:15:46.198Z,52.60
2018-12-15T23:18:14.691Z,54.80
2018-12-15T23:20:43.127Z,52.07
2018-12-15T23:23:11.663Z,53.27
2018-12-15T23:25:40.118Z,56.73
2018-12-15T23:28:08.534Z,57.33
2018-12-15T23:30:36.935Z,58.90
2018-12-15T23:33:05.338Z,58.50
2018-12-15T23:35:33.757Z,57.67
2018-12-15T23:38:02.161Z,63.47
2018-12-15T23:40:30.592Z,61.33
2018-12-15T23:42:59.000Z,63.57
2018-12-15T23:45:27.453Z,56.97
2018-12-15T23:47:55.851Z,64.80
2018-12-15T23:50:24.269Z,58.37
2018-12-15T23:52:52.658Z,57.93
2018-12-15T23:55:21.107Z,62.37
2018-12-15T23:57:49.527Z,62.20
